createdAt,value
2023-02-11T00:01:22.941Z,62.36
2023-02-11T00:06:43.703Z,62.34
2023-02-11T00:12:04.722Z,62.43
2023-02-11T00:17:25.980Z,62.22
2023-02-11T00:22:46.830Z,62.19
2023-02-11T00:28:08.155Z,62.71
2023-02-11T00:33:28.777Z,62.78
2023-02-11T00:38:50.915Z,62.53
2023-02-11T00:44:11.862Z,63.15
2023-02-11T00:49:34.350Z,63.31
2023-02-11T00:54:55.302Z,63.25
2023-02-11T01:00:16.284Z,63.55
2023-02-11T01:05:38.836Z,63.60
2023-02-11T01:11:02.768Z,63.55
2023-02-11T01:16:23.771Z,63.77
2023-02-11T01:21:46.888Z,63.46
2023-02-11T01:27:08.207Z,63.80
2023-02-11T01:32:29.050Z,64.06
2023-02-11T01:37:49.722Z,63.68
2023-02-11T01:43:12.145Z,64.19
2023-02-11T01:48:38.815Z,63.91
2023-02-11T01:54:20.304Z,63.90
2023-02-11T01:59:48.597Z,64.09
2023-02-11T02:05:24.360Z,64.23
2023-02-11T02:10:47.949Z,64.12
2023-02-11T02:16:16.519Z,64.01
2023-02-11T02:22:34.718Z,64.49
2023-02-11T02:28:21.017Z,64.11
2023-02-11T02:33:45.579Z,64.46
2023-02-11T02:39:18.216Z,64.44
2023-02-11T02:44:38.937Z,64.03
2023-02-11T02:49:59.759Z,64.42
2023-02-11T02:55:23.623Z,64.60
2023-02-11T03:01:00.945Z,64.33
2023-02-11T03:06:39.137Z,64.46
2023-02-11T03:12:02.662Z,64.43
2023-02-11T03:17:26.289Z,64.74
2023-02-11T03:22:55.772Z,64.58
2023-02-11T03:28:36.740Z,64.60
2023-02-11T03:34:12.695Z,64.18
2023-02-11T03:39:39.168Z,64.52
2023-02-11T03:45:10.786Z,64.53
2023-02-11T03:50:35.131Z,64.60
2023-02-11T03:56:00.451Z,64.57
2023-02-11T04:01:21.813Z,64.23
2023-02-11T04:06:43.446Z,64.44
2023-02-11T04:12:04.199Z,64.67
2023-02-11T04:17:25.239Z,64.77
2023-02-11T04:22:46.352Z,64.48
2023-02-11T04:28:07.291Z,64.59
2023-02-11T04:33:28.103Z,64.65
2023-02-11T04:38:48.839Z,64.64
2023-02-11T04:44:09.528Z,65.07
2023-02-11T04:49:30.648Z,64.51
2023-02-11T04:54:51.115Z,65.01
2023-02-11T05:00:12.454Z,65.26
2023-02-11T05:05:33.262Z,65.04
2023-02-11T05:10:54.170Z,65.10
2023-02-11T05:16:16.131Z,65.24
2023-02-11T05:21:37.096Z,65.08
2023-02-11T05:26:57.888Z,64.64
2023-02-11T05:32:18.996Z,65.00
2023-02-11T05:37:40.225Z,65.13
2023-02-11T05:43:01.178Z,64.94
2023-02-11T05:48:21.901Z,65.14
2023-02-11T05:53:42.533Z,65.14
2023-02-11T05:59:03.506Z,65.34
2023-02-11T06:04:24.264Z,65.28
2023-02-11T06:09:45.107Z,64.96
2023-02-11T06:15:06.618Z,65.22
2023-02-11T06:20:27.104Z,65.28
2023-02-11T06:25:47.977Z,65.03
2023-02-11T06:31:09.955Z,65.55
2023-02-11T06:36:30.942Z,65.28
2023-02-11T06:41:52.305Z,65.49
2023-02-11T06:47:13.052Z,65.25
2023-02-11T06:52:34.126Z,65.10
2023-02-11T06:57:54.874Z,65.54
2023-02-11T07:03:15.615Z,65.43
2023-02-11T07:08:38.015Z,65.81
2023-02-11T07:14:10.840Z,66.02
2023-02-11T07:19:32.041Z,65.51
2023-02-11T07:24:52.776Z,65.95
2023-02-11T07:30:14.156Z,65.51
2023-02-11T07:35:34.857Z,65.83
2023-02-11T07:41:00.679Z,65.48
2023-02-11T07:46:25.082Z,65.98
2023-02-11T07:51:46.188Z,65.81
2023-02-11T07:57:08.390Z,65.88
2023-02-11T08:02:29.490Z,65.44
2023-02-11T08:07:54.902Z,65.39
2023-02-11T08:13:15.439Z,65.49
2023-02-11T08:18:36.777Z,65.26
2023-02-11T08:23:57.562Z,65.38
2023-02-11T08:29:18.527Z,65.47
2023-02-11T08:34:39.304Z,65.07
2023-02-11T08:40:00.191Z,65.37
2023-02-11T08:45:20.839Z,65.33
2023-02-11T08:50:41.833Z,65.68
2023-02-11T08:56:02.966Z,65.22
2023-02-11T09:01:26.911Z,65.19
2023-02-11T09:06:49.235Z,65.55
2023-02-11T09:12:10.153Z,65.71
2023-02-11T09:17:30.972Z,65.46
2023-02-11T09:22:51.680Z,65.79
2023-02-11T09:28:12.978Z,65.88
2023-02-11T09:33:34.099Z,65.47
2023-02-11T09:38:55.432Z,65.80
2023-02-11T09:44:28.369Z,65.56
2023-02-11T09:49:53.731Z,65.74
2023-02-11T09:55:20.661Z,65.96
2023-02-11T10:00:59.882Z,65.28
2023-02-11T10:06:59.605Z,65.69
2023-02-11T10:12:51.493Z,65.95
2023-02-11T10:18:57.793Z,65.44
2023-02-11T10:24:19.114Z,65.42
2023-02-11T10:29:46.306Z,65.62
2023-02-11T10:35:16.156Z,65.74
2023-02-11T10:40:36.792Z,65.61
2023-02-11T10:45:59.088Z,65.66
2023-02-11T10:51:23.523Z,66.21
2023-02-11T10:56:58.638Z,66.11
2023-02-11T11:02:34.699Z,66.18
2023-02-11T11:08:00.180Z,65.91
2023-02-11T11:13:30.348Z,66.02
2023-02-11T11:19:13.676Z,65.98
2023-02-11T11:24:46.637Z,65.84
2023-02-11T11:30:16.886Z,66.05
2023-02-11T11:35:37.963Z,66.27
2023-02-11T11:41:20.397Z,66.67
2023-02-11T11:46:43.528Z,66.35
2023-02-11T11:52:22.854Z,66.18
2023-02-11T11:57:44.020Z,66.41
2023-02-11T12:03:37.398Z,66.06
2023-02-11T12:09:30.893Z,66.30
2023-02-11T12:15:30.552Z,65.96
2023-02-11T12:21:16.183Z,66.79
2023-02-11T12:26:49.670Z,66.87
2023-02-11T12:32:21.558Z,66.34
2023-02-11T12:38:18.897Z,66.42
2023-02-11T12:43:44.587Z,66.44
2023-02-11T12:49:26.499Z,65.98
2023-02-11T12:54:59.446Z,66.64
2023-02-11T13:00:25.139Z,66.94
2023-02-11T13:05:49.623Z,66.46
2023-02-11T13:11:33.622Z,66.90
2023-02-11T13:16:57.112Z,66.63
2023-02-11T13:22:31.836Z,67.12
2023-02-11T13:28:23.535Z,67.23
2023-02-11T13:33:45.876Z,66.82
2023-02-11T13:39:07.118Z,67.04
2023-02-11T13:44:28.505Z,67.34
2023-02-11T13:49:53.465Z,66.91
2023-02-11T13:55:14.007Z,66.49
2023-02-11T14:00:34.859Z,66.64
2023-02-11T14:06:30.724Z,66.35
2023-02-11T14:11:56.203Z,66.94
2023-02-11T14:17:18.993Z,66.94
2023-02-11T14:22:47.826Z,67.28
2023-02-11T14:28:32.947Z,67.42
2023-02-11T14:34:13.359Z,67.34
2023-02-11T14:39:52.747Z,67.40
2023-02-11T14:45:24.892Z,66.99
2023-02-11T14:50:52.874Z,67.24
2023-02-11T14:56:26.394Z,67.19
2023-02-11T15:01:54.412Z,67.47
2023-02-11T15:07:16.084Z,67.35
2023-02-11T15:12:38.251Z,67.30
2023-02-11T15:18:02.830Z,71.63
2023-02-11T15:23:28.973Z,68.43
2023-02-11T15:28:52.145Z,66.93
2023-02-11T15:34:12.693Z,66.35
2023-02-11T15:39:37.993Z,66.78
2023-02-11T15:45:15.676Z,67.64
2023-02-11T15:50:40.552Z,67.64
2023-02-11T15:56:19.337Z,67.38
2023-02-11T16:01:41.037Z,67.29
2023-02-11T16:07:01.776Z,67.26
2023-02-11T16:12:27.057Z,67.84
2023-02-11T16:17:48.534Z,68.11
2023-02-11T16:23:22.057Z,67.79
2023-02-11T16:28:43.009Z,68.14
2023-02-11T16:34:11.597Z,67.41
2023-02-11T16:39:33.374Z,67.86
2023-02-11T16:44:54.519Z,68.35
2023-02-11T16:50:23.984Z,68.22
2023-02-11T16:55:44.692Z,68.48
2023-02-11T17:01:06.925Z,68.60
2023-02-11T17:06:28.738Z,68.08
2023-02-11T17:11:50.229Z,68.38
2023-02-11T17:17:13.592Z,68.46
2023-02-11T17:22:34.329Z,68.47
2023-02-11T17:27:55.133Z,68.39
2023-02-11T17:33:16.217Z,68.75
2023-02-11T17:38:38.021Z,68.53
2023-02-11T17:43:59.687Z,68.63
2023-02-11T17:49:20.471Z,68.53
2023-02-11T17:54:41.294Z,69.04
2023-02-11T18:00:02.159Z,68.88
2023-02-11T18:05:36.295Z,69.20
2023-02-11T18:10:57.069Z,69.19
2023-02-11T18:16:17.951Z,69.11
2023-02-11T18:21:39.342Z,69.22
2023-02-11T18:27:00.069Z,69.00
2023-02-11T18:32:20.903Z,69.42
2023-02-11T18:37:43.129Z,69.16
2023-02-11T18:43:04.099Z,69.16
2023-02-11T18:48:27.133Z,69.13
2023-02-11T18:53:48.212Z,69.14
2023-02-11T18:59:08.870Z,69.26
2023-02-11T19:04:29.757Z,69.34
2023-02-11T19:09:50.865Z,69.48
2023-02-11T19:15:11.694Z,69.48
2023-02-11T19:20:33.516Z,69.05
2023-02-11T19:25:54.406Z,69.50
2023-02-11T19:31:15.866Z,69.57
2023-02-11T19:36:37.799Z,69.75
2023-02-11T19:41:59.115Z,69.47
2023-02-11T19:47:20.108Z,69.76
2023-02-11T19:52:41.173Z,69.69
2023-02-11T19:58:01.964Z,69.71
2023-02-11T20:03:23.520Z,70.23
2023-02-11T20:08:44.464Z,69.89
2023-02-11T20:14:06.856Z,70.29
2023-02-11T20:19:28.036Z,69.93
2023-02-11T20:24:49.012Z,70.26
2023-02-11T20:30:11.736Z,70.81
2023-02-11T20:35:32.744Z,70.72
2023-02-11T20:40:54.017Z,70.78
2023-02-11T20:46:17.007Z,71.00
2023-02-11T20:51:39.625Z,70.81
2023-02-11T20:57:00.762Z,71.01
2023-02-11T21:02:24.369Z,71.17
2023-02-11T21:07:46.523Z,71.15
2023-02-11T21:13:07.101Z,71.42
2023-02-11T21:18:27.831Z,71.47
2023-02-11T21:23:48.549Z,70.77
2023-02-11T21:29:10.031Z,71.20
2023-02-11T21:34:31.121Z,71.38
2023-02-11T21:39:52.031Z,71.39
2023-02-11T21:45:12.655Z,71.44
2023-02-11T21:50:33.439Z,71.58
2023-02-11T21:56:06.222Z,72.04
2023-02-11T22:01:30.388Z,71.99
2023-02-11T22:06:51.126Z,71.29
2023-02-11T22:12:12.006Z,71.29
2023-02-11T22:17:34.781Z,71.38
2023-02-11T22:22:55.446Z,71.78
2023-02-11T22:28:16.225Z,71.64
2023-02-11T22:33:37.040Z,71.67
2023-02-11T22:39:06.539Z,72.08
2023-02-11T22:44:27.421Z,71.87
2023-02-11T22:49:48.288Z,71.91
2023-02-11T22:55:09.801Z,71.61
2023-02-11T23:00:36.277Z,72.53
2023-02-11T23:05:58.741Z,72.33
2023-02-11T23:11:26.822Z,72.39
2023-02-11T23:16:50.020Z,72.28
2023-02-11T23:22:10.721Z,72.18
2023-02-11T23:27:31.680Z,72.28
2023-02-11T23:32:52.881Z,72.71
2023-02-11T23:38:13.627Z,72.17
2023-02-11T23:43:34.325Z,72.19
2023-02-11T23:48:55.654Z,72.16
2023-02-11T23:54:16.737Z,72.56
2023-02-11T23:59:37.577Z,72.34
